createdAt,value
2022-08-10T00:02:14.138Z,19.00
2022-08-10T00:06:17.340Z,18.90
2022-08-10T00:10:22.601Z,18.90
2022-08-10T00:14:25.450Z,18.80
2022-08-10T00:18:35.196Z,18.80
2022-08-10T00:22:52.949Z,18.70
2022-08-10T00:27:51.681Z,18.60
2022-08-10T00:31:24.996Z,18.50
2022-08-10T00:35:27.899Z,18.50
2022-08-10T00:39:35.951Z,18.40
2022-08-10T00:43:40.720Z,18.40
2022-08-10T00:47:43.552Z,18.30
2022-08-10T00:51:48.516Z,18.30
2022-08-10T00:57:07.914Z,18.20
2022-08-10T01:00:16.417Z,18.10
2022-08-10T01:04:59.029Z,18.10
2022-08-10T01:08:48.665Z,18.00
2022-08-10T01:12:55.048Z,17.90
2022-08-10T01:17:01.897Z,17.80
2022-08-10T01:21:20.040Z,17.80
2022-08-10T01:25:29.919Z,17.70
2022-08-10T01:29:47.597Z,17.60
2022-08-10T01:33:58.359Z,17.70
2022-08-10T01:38:04.620Z,17.60
2022-08-10T01:42:08.002Z,17.50
2022-08-10T01:46:12.142Z,17.50
2022-08-10T01:50:19.080Z,17.40
2022-08-10T01:54:23.515Z,17.40
2022-08-10T01:58:26.832Z,17.30
2022-08-10T02:02:31.435Z,17.30
2022-08-10T02:06:38.036Z,17.20
2022-08-10T02:10:41.577Z,17.10
2022-08-10T02:14:46.070Z,17.10
2022-08-10T02:18:49.205Z,17.00
2022-08-10T02:22:55.336Z,17.00
2022-08-10T02:26:59.890Z,16.90
2022-08-10T02:31:06.659Z,16.90
2022-08-10T02:35:13.947Z,16.80
2022-08-10T02:39:26.691Z,16.70
2022-08-10T02:45:22.200Z,16.60
2022-08-10T02:47:58.232Z,16.60
2022-08-10T02:52:06.666Z,16.50
2022-08-10T02:56:17.509Z,16.40
2022-08-10T03:00:20.414Z,16.40
2022-08-10T03:04:56.043Z,16.40
2022-08-10T03:08:49.096Z,16.30
2022-08-10T03:12:55.514Z,16.30
2022-08-10T03:17:00.070Z,16.20
2022-08-10T03:21:03.236Z,16.20
2022-08-10T03:25:06.657Z,16.20
2022-08-10T03:29:11.549Z,16.10
2022-08-10T03:33:14.961Z,16.10
2022-08-10T03:37:18.058Z,16.10
2022-08-10T03:41:23.956Z,16.00
2022-08-10T03:45:28.952Z,16.00
2022-08-10T03:49:52.508Z,15.90
2022-08-10T03:54:02.930Z,15.90
2022-08-10T03:58:06.870Z,15.80
2022-08-10T04:02:46.910Z,15.80
2022-08-10T04:06:38.685Z,15.70
2022-08-10T04:10:41.596Z,15.70
2022-08-10T04:14:50.452Z,15.60
2022-08-10T04:18:56.056Z,15.60
2022-08-10T04:23:03.428Z,15.50
2022-08-10T04:27:06.521Z,15.50
2022-08-10T04:31:10.162Z,15.40
2022-08-10T04:35:14.966Z,15.40
2022-08-10T04:39:18.455Z,15.40
2022-08-10T04:43:21.401Z,15.40
2022-08-10T04:47:57.602Z,15.40
2022-08-10T04:51:51.195Z,15.40
2022-08-10T04:55:54.015Z,15.40
2022-08-10T04:59:56.850Z,15.40
2022-08-10T05:04:36.884Z,15.40
2022-08-10T05:08:23.893Z,15.40
2022-08-10T05:12:27.195Z,15.40
2022-08-10T05:16:31.834Z,15.50
2022-08-10T05:20:35.579Z,15.50
2022-08-10T05:24:39.757Z,15.60
2022-08-10T05:28:42.564Z,15.70
2022-08-10T05:32:56.339Z,15.80
2022-08-10T05:37:01.366Z,15.90
2022-08-10T05:41:05.981Z,16.00
2022-08-10T05:45:14.944Z,16.10
2022-08-10T05:49:17.775Z,16.10
2022-08-10T05:54:04.161Z,16.20
2022-08-10T05:57:45.064Z,16.30
2022-08-10T06:02:30.280Z,16.40
2022-08-10T06:06:13.685Z,16.50
2022-08-10T06:10:29.984Z,16.60
2022-08-10T06:14:59.730Z,16.60
2022-08-10T06:19:03.138Z,16.70
2022-08-10T06:23:06.583Z,16.80
2022-08-10T06:27:09.710Z,16.90
2022-08-10T06:31:14.846Z,17.00
2022-08-10T06:35:18.962Z,17.10
2022-08-10T06:39:34.873Z,17.30
2022-08-10T06:43:41.764Z,17.40
2022-08-10T06:47:47.864Z,17.60
2022-08-10T06:51:57.273Z,17.70
2022-08-10T06:56:02.906Z,17.80
2022-08-10T07:00:06.922Z,18.00
2022-08-10T07:04:12.677Z,18.10
2022-08-10T07:08:17.685Z,18.20
2022-08-10T07:12:49.170Z,18.40
2022-08-10T07:16:52.358Z,18.60
2022-08-10T07:20:57.047Z,18.80
2022-08-10T07:25:02.259Z,18.90
2022-08-10T07:29:24.635Z,19.10
2022-08-10T07:33:34.106Z,19.20
2022-08-10T07:37:41.071Z,19.40
2022-08-10T07:41:49.276Z,19.70
2022-08-10T07:45:52.481Z,19.90
2022-08-10T07:49:57.743Z,20.10
2022-08-10T07:54:02.943Z,20.30
2022-08-10T07:58:06.459Z,20.50
2022-08-10T08:02:12.362Z,20.70
2022-08-10T08:06:15.986Z,20.90
2022-08-10T08:10:20.360Z,21.20
2022-08-10T08:14:23.845Z,21.40
2022-08-10T08:18:28.321Z,21.60
2022-08-10T08:24:16.380Z,21.90
2022-08-10T08:27:19.600Z,22.10
2022-08-10T08:31:23.110Z,22.40
2022-08-10T08:35:27.155Z,22.70
2022-08-10T08:39:31.879Z,22.90
2022-08-10T08:43:47.945Z,23.20
2022-08-10T08:48:05.341Z,23.40
2022-08-10T08:52:18.923Z,23.70
2022-08-10T08:56:26.499Z,24.00
2022-08-10T09:00:35.996Z,24.30
2022-08-10T09:04:45.415Z,24.60
2022-08-10T09:09:01.792Z,24.90
2022-08-10T09:13:08.156Z,25.20
2022-08-10T09:17:17.435Z,25.50
2022-08-10T09:21:23.061Z,25.90
2022-08-10T09:25:27.048Z,26.20
2022-08-10T09:29:32.423Z,26.50
2022-08-10T09:36:27.544Z,26.80
2022-08-10T09:38:13.409Z,27.10
2022-08-10T09:42:18.412Z,27.50
2022-08-10T09:46:33.411Z,27.80
2022-08-10T09:51:22.704Z,28.10
2022-08-10T09:55:11.042Z,28.40
2022-08-10T09:59:27.263Z,28.60
2022-08-10T10:03:43.296Z,28.90
2022-08-10T10:07:52.077Z,29.10
2022-08-10T10:12:09.949Z,29.30
2022-08-10T10:16:26.927Z,29.50
2022-08-10T10:20:33.988Z,29.80
2022-08-10T10:24:52.451Z,30.00
2022-08-10T10:29:30.843Z,30.30
2022-08-10T10:33:29.708Z,30.50
2022-08-10T10:38:02.657Z,30.70
2022-08-10T10:42:05.234Z,30.90
2022-08-10T10:46:25.649Z,31.10
2022-08-10T10:50:32.412Z,31.30
2022-08-10T10:54:40.595Z,31.50
2022-08-10T10:59:00.939Z,31.60
2022-08-10T11:03:13.500Z,31.80
2022-08-10T11:07:21.807Z,31.90
2022-08-10T11:12:01.989Z,32.10
2022-08-10T11:15:58.651Z,32.20
2022-08-10T11:20:06.163Z,32.40
2022-08-10T11:24:48.583Z,32.50
2022-08-10T11:28:39.951Z,32.60
2022-08-10T11:32:45.930Z,32.80
2022-08-10T11:36:54.034Z,33.00
2022-08-10T11:41:14.546Z,33.10
2022-08-10T11:45:27.883Z,33.30
2022-08-10T11:49:32.233Z,33.40
2022-08-10T11:53:43.403Z,33.50
2022-08-10T11:57:53.897Z,33.60
2022-08-10T12:01:59.056Z,33.60
2022-08-10T12:06:02.322Z,33.70
2022-08-10T12:10:13.372Z,33.80
2022-08-10T12:14:22.278Z,33.80
2022-08-10T12:18:28.024Z,33.90
2022-08-10T12:22:32.667Z,34.00
2022-08-10T12:26:39.127Z,34.00
2022-08-10T12:30:47.660Z,34.00
2022-08-10T12:34:52.176Z,34.10
2022-08-10T12:39:00.336Z,34.10
2022-08-10T12:44:04.620Z,34.10
2022-08-10T12:47:39.461Z,34.10
2022-08-10T12:51:49.538Z,34.20
2022-08-10T12:55:52.673Z,34.30
2022-08-10T12:59:59.042Z,34.30
2022-08-10T13:04:20.714Z,34.30
2022-08-10T13:08:43.751Z,34.30
2022-08-10T13:12:49.974Z,34.30
2022-08-10T13:16:57.668Z,34.10
2022-08-10T13:21:02.075Z,34.10
2022-08-10T13:25:06.831Z,34.00
2022-08-10T13:29:13.279Z,33.90
2022-08-10T13:34:35.878Z,33.80
2022-08-10T13:37:43.802Z,33.80
2022-08-10T13:41:47.526Z,33.70
2022-08-10T13:45:51.176Z,33.80
2022-08-10T13:49:56.697Z,33.70
2022-08-10T13:54:00.640Z,33.80
2022-08-10T13:58:03.707Z,33.80
2022-08-10T14:02:06.802Z,33.80
2022-08-10T14:06:13.251Z,33.80
2022-08-10T14:10:17.986Z,33.80
2022-08-10T14:14:42.854Z,33.80
2022-08-10T14:18:46.177Z,33.80
2022-08-10T14:22:50.532Z,33.90
2022-08-10T14:26:59.177Z,33.90
2022-08-10T14:31:04.549Z,34.00
2022-08-10T14:36:19.269Z,34.00
2022-08-10T14:39:35.601Z,34.00
2022-08-10T14:43:40.373Z,34.00
2022-08-10T14:47:53.206Z,34.10
2022-08-10T14:52:03.444Z,34.10
2022-08-10T14:56:09.988Z,34.00
2022-08-10T15:00:29.380Z,34.00
2022-08-10T15:04:37.611Z,34.00
2022-08-10T15:08:42.092Z,34.00
2022-08-10T15:12:52.529Z,34.10
2022-08-10T15:16:56.034Z,34.00
2022-08-10T15:20:59.763Z,34.00
2022-08-10T15:25:18.612Z,34.00
2022-08-10T15:29:28.602Z,34.00
2022-08-10T15:34:04.466Z,34.00
2022-08-10T15:38:08.754Z,34.00
2022-08-10T15:42:18.567Z,34.00
2022-08-10T15:50:28.091Z,34.30
2022-08-10T15:54:33.814Z,34.50
2022-08-10T15:58:40.730Z,34.60
2022-08-10T16:02:47.182Z,35.00
2022-08-10T16:06:58.525Z,35.20
2022-08-10T16:11:02.970Z,35.90
2022-08-10T16:15:07.969Z,35.90
2022-08-10T16:19:22.111Z,36.00
2022-08-10T16:23:30.905Z,36.20
2022-08-10T16:27:34.409Z,36.50
2022-08-10T16:31:38.210Z,36.60
2022-08-10T16:35:41.830Z,36.70
2022-08-10T16:39:58.334Z,36.70
2022-08-10T16:44:04.981Z,36.70
2022-08-10T16:48:09.302Z,36.60
2022-08-10T16:52:12.416Z,36.50
2022-08-10T16:56:17.401Z,36.40
2022-08-10T17:00:22.423Z,36.30
2022-08-10T17:04:26.143Z,36.10
2022-08-10T17:08:29.403Z,35.80
2022-08-10T17:12:34.507Z,35.50
2022-08-10T17:16:38.986Z,35.20
2022-08-10T17:20:42.139Z,34.80
2022-08-10T17:24:46.873Z,34.40
2022-08-10T17:28:52.245Z,34.10
2022-08-10T17:32:56.841Z,33.70
2022-08-10T17:37:00.603Z,33.30
2022-08-10T17:41:08.540Z,33.00
2022-08-10T17:45:46.339Z,32.60
2022-08-10T17:49:41.307Z,32.30
2022-08-10T17:53:45.752Z,31.90
2022-08-10T17:57:49.361Z,31.60
2022-08-10T18:02:07.506Z,31.30
2022-08-10T18:06:15.338Z,31.10
2022-08-10T18:10:19.950Z,30.80
2022-08-10T18:14:23.305Z,30.60
2022-08-10T18:18:28.346Z,30.30
2022-08-10T18:22:33.045Z,30.10
2022-08-10T18:26:37.087Z,29.90
2022-08-10T18:30:45.779Z,29.60
2022-08-10T18:34:50.801Z,29.40
2022-08-10T18:38:55.758Z,29.20
2022-08-10T18:42:59.142Z,29.00
2022-08-10T18:47:03.788Z,28.80
2022-08-10T18:51:08.758Z,28.60
2022-08-10T18:55:24.536Z,28.40
2022-08-10T18:59:37.327Z,28.20
2022-08-10T19:03:54.112Z,28.00
2022-08-10T19:08:11.169Z,27.80
2022-08-10T19:12:30.669Z,27.70
2022-08-10T19:16:38.843Z,27.40
2022-08-10T19:20:45.438Z,27.20
2022-08-10T19:24:55.093Z,27.10
2022-08-10T19:28:59.867Z,26.90
2022-08-10T19:33:13.100Z,26.70
2022-08-10T19:37:21.884Z,26.50
2022-08-10T19:41:44.328Z,26.30
2022-08-10T19:46:01.953Z,26.10
2022-08-10T19:50:07.626Z,25.90
2022-08-10T19:54:15.392Z,25.70
2022-08-10T19:58:21.077Z,25.50
2022-08-10T20:02:25.966Z,25.40
2022-08-10T20:06:32.367Z,25.20
2022-08-10T20:10:38.308Z,25.10
2022-08-10T20:14:48.184Z,24.90
2022-08-10T20:18:52.799Z,24.70
2022-08-10T20:23:08.681Z,24.50
2022-08-10T20:27:56.836Z,24.40
2022-08-10T20:31:46.512Z,24.20
2022-08-10T20:35:51.197Z,24.00
2022-08-10T20:39:57.865Z,23.90
2022-08-10T20:44:09.685Z,23.70
2022-08-10T20:48:21.840Z,23.60
2022-08-10T20:52:25.927Z,23.50
2022-08-10T20:56:34.153Z,23.40
2022-08-10T21:00:42.799Z,23.30
2022-08-10T21:04:53.070Z,23.20
2022-08-10T21:09:01.059Z,23.10
2022-08-10T21:13:11.097Z,23.00
2022-08-10T21:17:19.149Z,22.80
2022-08-10T21:25:42.207Z,22.70
2022-08-10T21:26:08.890Z,22.60
2022-08-10T21:30:12.715Z,22.50
2022-08-10T21:34:19.569Z,22.40
2022-08-10T21:38:38.316Z,22.40
2022-08-10T21:43:06.357Z,22.20
2022-08-10T21:47:43.411Z,22.20
2022-08-10T21:52:16.054Z,22.10
2022-08-10T21:56:40.240Z,21.90
2022-08-10T22:01:05.655Z,21.80
2022-08-10T22:05:39.290Z,21.70
2022-08-10T22:10:03.944Z,21.60
2022-08-10T22:14:25.907Z,21.50
2022-08-10T22:18:58.887Z,21.40
2022-08-10T22:23:46.153Z,21.30
2022-08-10T22:28:17.659Z,21.20
2022-08-10T22:32:43.297Z,21.10
2022-08-10T22:37:13.242Z,21.00
2022-08-10T22:41:40.265Z,20.90
2022-08-10T22:46:06.087Z,20.80
2022-08-10T22:50:10.568Z,20.70
2022-08-10T22:54:34.343Z,20.60
2022-08-10T22:58:41.828Z,20.50
2022-08-10T23:02:51.384Z,20.40
2022-08-10T23:06:56.779Z,20.40
2022-08-10T23:11:04.226Z,20.30
2022-08-10T23:15:26.181Z,20.20
2022-08-10T23:19:29.661Z,20.20
2022-08-10T23:23:37.487Z,20.10
2022-08-10T23:27:42.988Z,20.00
2022-08-10T23:31:59.262Z,19.90
2022-08-10T23:36:34.243Z,19.80
2022-08-10T23:40:36.368Z,19.70
2022-08-10T23:44:42.660Z,19.60
2022-08-10T23:48:46.676Z,19.60
2022-08-10T23:52:53.436Z,19.50
2022-08-10T23:57:00.843Z,19.40
